createdAt,value
2022-10-15T00:01:32.987Z,101012.50
2022-10-15T00:04:37.787Z,101005.39
2022-10-15T00:07:44.285Z,101005.92
2022-10-15T00:10:49.752Z,101008.17
2022-10-15T00:13:55.668Z,101009.95
2022-10-15T00:17:01.946Z,101012.02
2022-10-15T00:20:09.480Z,101011.31
2022-10-15T00:23:14.929Z,101008.23
2022-10-15T00:26:32.765Z,101007.02
2022-10-15T00:29:39.498Z,101004.72
2022-10-15T00:32:38.309Z,101014.41
2022-10-15T00:35:43.375Z,101012.95
2022-10-15T00:38:48.297Z,101006.45
2022-10-15T00:41:59.419Z,101007.84
2022-10-15T00:45:11.276Z,101018.45
2022-10-15T00:48:17.167Z,101013.52
2022-10-15T00:51:24.082Z,101021.89
2022-10-15T00:54:23.353Z,101018.39
2022-10-15T00:57:29.076Z,101021.20
2022-10-15T01:00:35.299Z,101024.62
2022-10-15T01:03:42.770Z,101024.39
2022-10-15T01:06:49.321Z,101021.39
2022-10-15T01:09:55.021Z,101017.33
2022-10-15T01:13:42.331Z,101020.50
2022-10-15T01:17:06.985Z,101022.48
2022-10-15T01:21:01.079Z,101021.77
2022-10-15T01:24:35.738Z,101022.64
2022-10-15T01:27:55.151Z,101020.61
2022-10-15T01:31:21.743Z,101023.63
2022-10-15T01:34:40.631Z,101025.50
2022-10-15T01:38:09.270Z,101031.53
2022-10-15T01:41:19.694Z,101027.86
2022-10-15T01:44:39.289Z,101031.01
2022-10-15T01:48:02.903Z,101035.41
2022-10-15T01:51:10.045Z,101044.59
2022-10-15T01:54:15.865Z,101040.65
2022-10-15T01:57:23.048Z,101040.37
2022-10-15T02:00:28.962Z,101040.37
2022-10-15T02:03:34.504Z,101040.65
2022-10-15T02:06:49.497Z,101048.47
2022-10-15T02:10:09.741Z,101046.86
2022-10-15T02:13:28.086Z,101048.49
2022-10-15T02:17:01.409Z,101049.21
2022-10-15T02:20:27.193Z,101050.43
2022-10-15T02:23:38.873Z,101049.97
2022-10-15T02:26:45.139Z,101046.55
2022-10-15T02:29:51.452Z,101055.66
2022-10-15T02:33:00.529Z,101060.81
2022-10-15T02:36:05.167Z,101058.36
2022-10-15T02:39:11.733Z,101057.63
2022-10-15T02:42:17.772Z,101053.05
2022-10-15T02:45:24.183Z,101056.78
2022-10-15T02:48:31.081Z,101060.48
2022-10-15T02:51:36.017Z,101056.69
2022-10-15T02:54:41.493Z,101059.04
2022-10-15T02:57:48.720Z,101052.86
2022-10-15T03:00:53.412Z,101055.02
2022-10-15T03:04:00.864Z,101060.33
2022-10-15T03:07:08.228Z,101060.03
2022-10-15T03:10:14.773Z,101060.03
2022-10-15T03:13:21.390Z,101062.77
2022-10-15T03:16:27.977Z,101056.84
2022-10-15T03:19:34.668Z,101063.86
2022-10-15T03:22:40.837Z,101065.36
2022-10-15T03:25:47.603Z,101061.78
2022-10-15T03:28:52.867Z,101061.53
2022-10-15T03:32:07.108Z,101060.78
2022-10-15T03:35:12.885Z,101068.17
2022-10-15T03:38:18.709Z,101058.08
2022-10-15T03:41:25.234Z,101071.02
2022-10-15T03:44:29.886Z,101066.34
2022-10-15T03:47:41.041Z,101068.95
2022-10-15T03:50:45.923Z,101064.24
2022-10-15T03:53:51.670Z,101060.54
2022-10-15T03:56:50.780Z,101063.40
2022-10-15T03:59:59.206Z,101067.32
2022-10-15T04:03:06.766Z,101063.27
2022-10-15T04:06:13.592Z,101063.64
2022-10-15T04:09:20.363Z,101069.17
2022-10-15T04:12:28.629Z,101065.97
2022-10-15T04:15:35.119Z,101064.52
2022-10-15T04:18:42.718Z,101066.34
2022-10-15T04:21:48.571Z,101072.49
2022-10-15T04:24:56.589Z,101074.63
2022-10-15T04:27:55.988Z,101079.19
2022-10-15T04:31:02.754Z,101086.19
2022-10-15T04:34:08.825Z,101082.38
2022-10-15T04:37:13.604Z,101081.75
2022-10-15T04:40:19.473Z,101086.33
2022-10-15T04:43:25.015Z,101090.73
2022-10-15T04:46:33.204Z,101087.67
2022-10-15T04:49:43.082Z,101093.67
2022-10-15T04:53:07.209Z,101088.10
2022-10-15T04:56:23.845Z,101095.73
2022-10-15T04:59:29.560Z,101103.30
2022-10-15T05:02:57.452Z,101110.66
2022-10-15T05:06:05.715Z,101115.75
2022-10-15T05:09:14.674Z,101115.27
2022-10-15T05:12:22.480Z,101112.13
2022-10-15T05:15:30.746Z,101118.87
2022-10-15T05:18:38.355Z,101117.55
2022-10-15T05:21:44.739Z,101114.12
2022-10-15T05:24:53.188Z,101121.23
2022-10-15T05:28:03.191Z,101113.74
2022-10-15T05:31:10.986Z,101120.30
2022-10-15T05:34:22.133Z,101119.88
2022-10-15T05:37:38.844Z,101123.91
2022-10-15T05:40:45.617Z,101122.16
2022-10-15T05:43:53.760Z,101122.78
2022-10-15T05:47:01.788Z,101126.31
2022-10-15T05:50:11.025Z,101128.11
2022-10-15T05:53:18.658Z,101123.40
2022-10-15T05:56:28.278Z,101130.92
2022-10-15T05:59:34.746Z,101136.28
2022-10-15T06:02:41.882Z,101132.76
2022-10-15T06:05:47.953Z,101136.97
2022-10-15T06:08:54.220Z,101134.23
2022-10-15T06:12:01.120Z,101136.81
2022-10-15T06:15:07.124Z,101143.62
2022-10-15T06:18:12.693Z,101138.31
2022-10-15T06:21:20.574Z,101143.75
2022-10-15T06:24:26.287Z,101138.89
2022-10-15T06:27:44.494Z,101144.05
2022-10-15T06:30:52.143Z,101139.25
2022-10-15T06:34:01.445Z,101138.61
2022-10-15T06:37:07.371Z,101138.96
2022-10-15T06:40:13.289Z,101137.11
2022-10-15T06:43:21.961Z,101140.88
2022-10-15T06:46:28.093Z,101139.27
2022-10-15T06:49:34.568Z,101141.17
2022-10-15T06:52:41.420Z,101142.48
2022-10-15T06:55:46.801Z,101140.83
2022-10-15T06:58:52.511Z,101142.87
2022-10-15T07:01:58.084Z,101141.98
2022-10-15T07:05:04.240Z,101144.12
2022-10-15T07:08:11.025Z,101147.33
2022-10-15T07:11:22.370Z,101147.72
2022-10-15T07:14:28.324Z,101145.16
2022-10-15T07:17:35.163Z,101148.85
2022-10-15T07:20:41.654Z,101139.03
2022-10-15T07:23:48.398Z,101148.45
2022-10-15T07:26:54.710Z,101147.58
2022-10-15T07:30:01.226Z,101148.16
2022-10-15T07:33:07.416Z,101145.92
2022-10-15T07:36:16.865Z,101145.16
2022-10-15T07:39:26.271Z,101140.41
2022-10-15T07:42:32.353Z,101143.56
2022-10-15T07:45:38.075Z,101142.88
2022-10-15T07:48:44.078Z,101142.07
2022-10-15T07:51:49.922Z,101139.69
2022-10-15T07:54:55.825Z,101144.16
2022-10-15T07:58:03.002Z,101146.42
2022-10-15T08:01:09.617Z,101146.48
2022-10-15T08:04:15.481Z,101131.23
2022-10-15T08:07:20.977Z,101135.20
2022-10-15T08:10:28.130Z,101141.36
2022-10-15T08:13:27.895Z,101136.00
2022-10-15T08:16:22.276Z,101129.52
2022-10-15T08:19:23.854Z,101139.27
2022-10-15T08:22:29.512Z,101136.06
2022-10-15T08:25:35.006Z,101139.32
2022-10-15T08:28:41.236Z,101132.83
2022-10-15T08:31:47.036Z,101139.52
2022-10-15T08:34:54.991Z,101138.33
2022-10-15T08:38:03.069Z,101131.99
2022-10-15T08:41:13.508Z,101148.61
2022-10-15T08:44:19.812Z,101144.17
2022-10-15T08:47:39.537Z,101137.30
2022-10-15T08:51:18.038Z,101134.55
2022-10-15T08:54:28.516Z,101130.09
2022-10-15T08:57:42.114Z,101122.19
2022-10-15T09:01:07.520Z,101129.23
2022-10-15T09:04:50.317Z,101136.80
2022-10-15T09:08:02.030Z,101136.62
2022-10-15T09:11:12.126Z,101124.11
2022-10-15T09:14:17.144Z,101122.89
2022-10-15T09:17:39.663Z,101120.33
2022-10-15T09:20:49.105Z,101114.31
2022-10-15T09:23:55.176Z,101118.77
2022-10-15T09:27:31.890Z,101113.12
2022-10-15T09:30:52.148Z,101103.00
2022-10-15T09:34:08.782Z,101114.31
2022-10-15T09:37:17.444Z,101107.63
2022-10-15T09:40:50.114Z,101102.29
2022-10-15T09:43:57.832Z,101107.45
2022-10-15T09:47:05.421Z,101109.16
2022-10-15T09:50:10.994Z,101104.70
2022-10-15T09:53:52.456Z,101098.83
2022-10-15T09:57:08.285Z,101093.19
2022-10-15T10:00:15.676Z,101100.73
2022-10-15T10:03:25.865Z,101090.05
2022-10-15T10:06:31.894Z,101093.25
2022-10-15T10:09:54.121Z,101103.39
2022-10-15T10:13:00.901Z,101101.22
2022-10-15T10:16:09.231Z,101094.16
2022-10-15T10:19:28.359Z,101113.02
2022-10-15T10:22:34.897Z,101104.31
2022-10-15T10:25:48.727Z,101104.81
2022-10-15T10:29:22.168Z,101095.73
2022-10-15T10:32:35.372Z,101090.95
2022-10-15T10:35:44.378Z,101077.72
2022-10-15T10:38:52.692Z,101081.30
2022-10-15T10:42:08.707Z,101080.63
2022-10-15T10:45:38.630Z,101087.47
2022-10-15T10:49:05.242Z,101073.02
2022-10-15T10:52:11.421Z,101071.66
2022-10-15T10:55:28.244Z,101069.30
2022-10-15T10:58:36.666Z,101076.41
2022-10-15T11:01:41.422Z,101068.66
2022-10-15T11:04:49.083Z,101070.55
2022-10-15T11:08:09.982Z,101065.29
2022-10-15T11:11:36.374Z,101072.67
2022-10-15T11:15:01.204Z,101070.47
2022-10-15T11:18:37.986Z,101072.60
2022-10-15T11:22:09.204Z,101075.22
2022-10-15T11:25:35.657Z,101067.05
2022-10-15T11:29:07.550Z,101061.55
2022-10-15T11:32:26.060Z,101070.45
2022-10-15T11:35:53.257Z,101069.08
2022-10-15T11:39:21.013Z,101067.90
2022-10-15T11:42:42.268Z,101068.34
2022-10-15T11:46:13.096Z,101075.92
2022-10-15T11:49:52.307Z,101071.24
2022-10-15T11:53:13.538Z,101072.75
2022-10-15T11:56:28.265Z,101069.34
2022-10-15T12:00:00.798Z,101072.73
2022-10-15T12:03:10.585Z,101071.98
2022-10-15T12:06:31.189Z,101075.84
2022-10-15T12:09:45.644Z,101065.05
2022-10-15T12:13:21.742Z,101066.23
2022-10-15T12:17:11.619Z,101073.90
2022-10-15T12:20:34.917Z,101073.38
2022-10-15T12:23:56.450Z,101072.56
2022-10-15T12:27:01.833Z,101076.55
2022-10-15T12:30:18.699Z,101070.27
2022-10-15T12:33:11.151Z,101075.11
2022-10-15T12:36:37.683Z,101067.59
2022-10-15T12:39:58.742Z,101073.95
2022-10-15T12:42:54.457Z,101068.93
2022-10-15T12:46:13.080Z,101078.39
2022-10-15T12:49:38.894Z,101075.25
2022-10-15T12:53:43.048Z,101070.48
2022-10-15T12:56:54.681Z,101064.84
2022-10-15T13:00:05.482Z,101065.70
2022-10-15T13:03:11.831Z,101064.98
2022-10-15T13:06:41.621Z,101063.95
2022-10-15T13:09:49.397Z,101057.58
2022-10-15T13:12:57.400Z,101053.80
2022-10-15T13:16:13.842Z,101049.02
2022-10-15T13:19:19.385Z,101041.12
2022-10-15T13:22:43.013Z,101039.41
2022-10-15T13:25:49.561Z,101044.05
2022-10-15T13:28:50.662Z,101037.37
2022-10-15T13:31:56.832Z,101034.77
2022-10-15T13:35:04.350Z,101039.53
2022-10-15T13:38:12.762Z,101034.53
2022-10-15T13:41:18.564Z,101031.08
2022-10-15T13:44:36.596Z,101024.96
2022-10-15T13:47:47.685Z,101028.09
2022-10-15T13:50:54.448Z,101021.75
2022-10-15T13:53:59.666Z,101026.53
2022-10-15T13:57:05.450Z,101023.97
2022-10-15T14:00:12.979Z,101034.78
2022-10-15T14:03:35.604Z,101029.14
2022-10-15T14:06:55.973Z,101033.58
2022-10-15T14:10:00.573Z,101044.41
2022-10-15T14:13:06.114Z,101036.53
2022-10-15T14:16:35.223Z,101035.81
2022-10-15T14:19:40.246Z,101033.63
2022-10-15T14:22:46.743Z,101041.36
2022-10-15T14:25:52.839Z,101038.80
2022-10-15T14:29:03.206Z,101040.52
2022-10-15T14:32:09.201Z,101041.89
2022-10-15T14:35:16.831Z,101043.63
2022-10-15T14:38:26.426Z,101051.52
2022-10-15T14:41:42.974Z,101047.41
2022-10-15T14:45:02.871Z,101059.42
2022-10-15T14:48:17.453Z,101057.00
2022-10-15T14:51:31.355Z,101062.15
2022-10-15T14:54:40.189Z,101060.94
2022-10-15T14:57:49.609Z,101063.82
2022-10-15T15:01:00.404Z,101072.73
2022-10-15T15:04:10.204Z,101071.67
2022-10-15T15:07:16.685Z,101073.70
2022-10-15T15:10:23.791Z,101067.96
2022-10-15T15:13:34.092Z,101073.95
2022-10-15T15:16:39.633Z,101071.10
2022-10-15T15:19:44.313Z,101078.93
2022-10-15T15:22:49.746Z,101089.52
2022-10-15T15:25:58.071Z,101087.72
2022-10-15T15:29:04.777Z,101088.34
2022-10-15T15:32:10.642Z,101090.74
2022-10-15T15:35:16.468Z,101091.43
2022-10-15T15:38:22.035Z,101088.15
2022-10-15T15:41:36.004Z,101088.83
2022-10-15T15:44:42.175Z,101092.22
2022-10-15T15:47:47.754Z,101084.02
2022-10-15T15:50:53.597Z,101084.53
2022-10-15T15:54:00.275Z,101089.88
2022-10-15T15:57:07.732Z,101093.47
2022-10-15T16:00:13.425Z,101096.84
2022-10-15T16:03:19.427Z,101096.41
2022-10-15T16:06:26.234Z,101105.17
2022-10-15T16:09:33.301Z,101098.85
2022-10-15T16:12:40.801Z,101108.37
2022-10-15T16:15:47.695Z,101119.18
2022-10-15T16:18:53.885Z,101115.03
2022-10-15T16:22:00.704Z,101111.78
2022-10-15T16:25:07.458Z,101109.67
2022-10-15T16:28:14.102Z,101121.13
2022-10-15T16:31:41.922Z,101108.72
2022-10-15T16:34:48.304Z,101112.42
2022-10-15T16:37:53.882Z,101116.12
2022-10-15T16:41:01.350Z,101124.48
2022-10-15T16:44:07.419Z,101123.19
2022-10-15T16:47:15.638Z,101116.75
2022-10-15T16:50:22.903Z,101113.61
2022-10-15T16:53:29.803Z,101115.02
2022-10-15T16:56:40.986Z,101110.55
2022-10-15T16:59:47.350Z,101111.19
2022-10-15T17:02:54.873Z,101111.79
2022-10-15T17:06:00.585Z,101120.11
2022-10-15T17:09:12.733Z,101127.79
2022-10-15T17:12:17.979Z,101123.16
2022-10-15T17:15:23.510Z,101126.42
2022-10-15T17:18:28.855Z,101133.85
2022-10-15T17:21:36.340Z,101131.59
2022-10-15T17:24:41.725Z,101130.94
2022-10-15T17:27:42.695Z,101129.13
2022-10-15T17:30:28.942Z,101129.22
2022-10-15T17:33:21.874Z,101131.89
2022-10-15T17:36:26.297Z,101132.65
2022-10-15T17:39:35.094Z,101132.67
2022-10-15T17:42:41.349Z,101129.39
2022-10-15T17:45:40.548Z,101133.71
2022-10-15T17:48:47.186Z,101139.50
2022-10-15T17:51:52.922Z,101147.66
2022-10-15T17:54:58.675Z,101145.87
2022-10-15T17:58:04.304Z,101143.91
2022-10-15T18:01:12.706Z,101148.16
2022-10-15T18:04:19.271Z,101143.91
2022-10-15T18:07:27.113Z,101142.90
2022-10-15T18:10:33.272Z,101146.48
2022-10-15T18:13:39.491Z,101148.56
2022-10-15T18:16:46.724Z,101151.99
2022-10-15T18:19:53.357Z,101153.62
2022-10-15T18:22:58.907Z,101155.27
2022-10-15T18:26:06.547Z,101154.25
2022-10-15T18:29:12.326Z,101153.33
2022-10-15T18:32:20.157Z,101150.32
2022-10-15T18:35:25.922Z,101159.51
2022-10-15T18:38:32.628Z,101154.41
2022-10-15T18:44:49.795Z,101172.84
2022-10-15T18:47:49.580Z,101170.39
2022-10-15T18:50:43.621Z,101167.89
2022-10-15T18:53:50.289Z,101174.29
2022-10-15T18:56:56.560Z,101177.17
2022-10-15T19:00:02.974Z,101180.84
2022-10-15T19:03:09.281Z,101182.67
2022-10-15T19:06:15.536Z,101184.53
2022-10-15T19:09:24.566Z,101186.48
2022-10-15T19:12:23.802Z,101184.09
2022-10-15T19:15:25.171Z,101186.89
2022-10-15T19:18:31.931Z,101178.86
2022-10-15T19:21:38.021Z,101183.34
2022-10-15T19:24:43.448Z,101188.69
2022-10-15T19:27:49.584Z,101184.27
2022-10-15T19:30:56.000Z,101186.75
2022-10-15T19:34:04.759Z,101196.45
2022-10-15T19:37:10.909Z,101193.31
2022-10-15T19:40:18.867Z,101191.83
2022-10-15T19:43:25.717Z,101191.80
2022-10-15T19:46:31.760Z,101196.59
2022-10-15T19:49:30.076Z,101203.41
2022-10-15T19:52:22.784Z,101197.45
2022-10-15T19:55:28.973Z,101202.82
2022-10-15T19:58:35.314Z,101205.19
2022-10-15T20:01:35.315Z,101208.94
2022-10-15T20:04:22.044Z,101203.75
2022-10-15T20:07:14.131Z,101198.86
2022-10-15T20:10:06.402Z,101195.58
2022-10-15T20:13:11.805Z,101196.39
2022-10-15T20:16:24.841Z,101204.22
2022-10-15T20:19:34.524Z,101199.38
2022-10-15T20:22:40.910Z,101197.67
2022-10-15T20:25:47.305Z,101196.41
2022-10-15T20:28:58.894Z,101198.63
2022-10-15T20:32:11.041Z,101200.48
2022-10-15T20:35:10.875Z,101203.30
2022-10-15T20:38:16.865Z,101199.84
2022-10-15T20:41:28.666Z,101200.19
2022-10-15T20:44:34.143Z,101200.03
2022-10-15T20:47:39.574Z,101204.13
2022-10-15T20:50:48.600Z,101203.25
2022-10-15T20:53:54.953Z,101208.33
2022-10-15T20:57:01.299Z,101207.02
2022-10-15T21:00:06.890Z,101204.56
2022-10-15T21:03:06.939Z,101206.07
2022-10-15T21:06:14.862Z,101206.89
2022-10-15T21:09:22.426Z,101201.06
2022-10-15T21:12:28.512Z,101195.27
2022-10-15T21:15:34.796Z,101205.83
2022-10-15T21:18:41.750Z,101215.45
2022-10-15T21:21:48.183Z,101208.47
2022-10-15T21:24:54.763Z,101209.89
2022-10-15T21:28:01.463Z,101213.64
2022-10-15T21:31:07.983Z,101216.33
2022-10-15T21:34:13.708Z,101213.34
2022-10-15T21:37:20.153Z,101214.01
2022-10-15T21:40:26.992Z,101221.27
2022-10-15T21:43:33.151Z,101217.64
2022-10-15T21:46:38.093Z,101218.09
2022-10-15T21:49:43.407Z,101216.31
2022-10-15T21:52:48.816Z,101230.27
2022-10-15T21:55:54.336Z,101234.00
2022-10-15T21:59:01.703Z,101233.64
2022-10-15T22:02:07.616Z,101237.61
2022-10-15T22:05:13.244Z,101235.64
2022-10-15T22:08:19.558Z,101241.66
2022-10-15T22:11:37.164Z,101241.05
2022-10-15T22:14:43.683Z,101245.34
2022-10-15T22:17:50.031Z,101246.02
2022-10-15T22:20:55.951Z,101244.95
2022-10-15T22:24:06.463Z,101247.82
2022-10-15T22:27:12.640Z,101251.78
2022-10-15T22:30:19.881Z,101255.39
2022-10-15T22:33:25.776Z,101249.36
2022-10-15T22:36:39.382Z,101253.39
2022-10-15T22:39:46.437Z,101249.06
2022-10-15T22:42:55.516Z,101252.77
2022-10-15T22:46:01.167Z,101246.64
2022-10-15T22:49:06.857Z,101246.88
2022-10-15T22:52:14.003Z,101242.45
2022-10-15T22:55:13.495Z,101250.23
2022-10-15T22:57:59.772Z,101249.14
2022-10-15T23:00:51.735Z,101252.72
2022-10-15T23:03:45.370Z,101255.18
2022-10-15T23:06:44.634Z,101256.44
2022-10-15T23:09:51.252Z,101262.23
2022-10-15T23:12:57.298Z,101256.83
2022-10-15T23:16:02.615Z,101262.27
2022-10-15T23:19:12.308Z,101257.46
2022-10-15T23:22:18.969Z,101262.14
2022-10-15T23:25:25.189Z,101261.65
2022-10-15T23:28:32.018Z,101262.12
2022-10-15T23:31:39.704Z,101262.01
2022-10-15T23:34:45.341Z,101259.42
2022-10-15T23:37:56.398Z,101259.17
2022-10-15T23:41:02.587Z,101265.83
2022-10-15T23:44:09.279Z,101267.20
2022-10-15T23:47:15.416Z,101264.25
2022-10-15T23:50:21.827Z,101260.05
2022-10-15T23:53:27.726Z,101266.21
2022-10-15T23:56:26.835Z,101273.02
2022-10-15T23:59:33.096Z,101274.61
